Time;durP1;ratioP1;P1;durP2;ratioP2;P2;SDS_P1;SDS_P2;PMS_P1;PMS_P2;Temp;Humidity;BMP_temperature;BMP_pressure;BME280_temperature;BME280_humidity;BME280_pressure;Samples;Min_cycle;Max_cycle;Signal;HPM_P1;HPM_P2
2021/06/12 00:00:09;;;;;;;13.23;11.87;;;13.50;99.90;;;;;;2090487;28;20190;-71
2021/06/12 00:01:10;;;;;;;13.15;11.85;;;13.50;99.90;;;;;;2082379;28;20268;-72
2021/06/12 00:02:11;;;;;;;13.57;12.18;;;13.50;99.90;;;;;;2082079;28;20588;-72
2021/06/12 00:03:12;;;;;;;12.70;11.50;;;13.50;99.90;;;;;;2090967;28;20173;-72
2021/06/12 00:04:13;;;;;;;13.07;11.23;;;13.50;99.90;;;;;;2090463;28;20191;-72
2021/06/12 00:05:15;;;;;;;12.30;11.20;;;13.50;99.90;;;;;;2082815;28;20177;-71
2021/06/12 00:06:15;;;;;;;12.77;11.57;;;13.50;99.90;;;;;;2083177;28;20640;-71
2021/06/12 00:07:16;;;;;;;13.37;11.97;;;13.50;99.90;;;;;;2090764;28;20231;-71
2021/06/12 00:08:17;;;;;;;12.67;11.47;;;13.50;99.90;;;;;;2090715;28;20203;-72
2021/06/12 00:09:18;;;;;;;12.70;11.50;;;13.40;99.90;;;;;;2091091;28;20447;-71
2021/06/12 00:10:30;;;;;;;14.02;11.82;;;13.40;99.90;;;;;;2092122;28;20246;-72
2021/06/12 00:11:31;;;;;;;13.30;12.02;;;13.40;99.90;;;;;;2091794;28;20160;-72
2021/06/12 00:12:32;;;;;;;14.32;11.73;;;13.40;99.90;;;;;;2091090;28;20196;-72
2021/06/12 00:13:33;;;;;;;14.20;12.80;;;13.40;99.90;;;;;;2082758;28;20304;-72
2021/06/12 00:14:34;;;;;;;12.90;11.63;;;13.40;99.90;;;;;;2082845;28;20183;-72
2021/06/12 00:15:36;;;;;;;13.73;12.32;;;13.40;99.90;;;;;;2091155;28;20712;-71
2021/06/12 00:16:37;;;;;;;13.25;12.05;;;13.40;99.90;;;;;;2090519;28;20188;-72
2021/06/12 00:17:38;;;;;;;13.77;12.47;;;13.40;99.90;;;;;;2090903;28;20180;-72
2021/06/12 00:18:39;;;;;;;14.50;13.10;;;13.30;99.90;;;;;;2090806;28;20538;-71
2021/06/12 00:19:39;;;;;;;13.13;11.73;;;13.40;99.90;;;;;;2090906;28;20199;-70
2021/06/12 00:20:40;;;;;;;12.70;11.60;;;13.40;99.90;;;;;;2090708;28;20577;-71
2021/06/12 00:21:41;;;;;;;13.03;11.73;;;13.30;99.90;;;;;;2090485;28;20188;-72
2021/06/12 00:22:43;;;;;;;12.80;11.50;;;13.30;99.90;;;;;;2081682;28;20514;-72
2021/06/12 00:23:43;;;;;;;12.68;11.45;;;13.30;99.90;;;;;;2081859;28;20234;-73
2021/06/12 00:24:44;;;;;;;11.57;10.47;;;13.30;99.90;;;;;;2082587;28;20655;-72
2021/06/12 00:25:45;;;;;;;12.73;11.53;;;13.30;99.90;;;;;;2090827;28;20210;-72
2021/06/12 00:26:45;;;;;;;16.80;15.20;;;13.30;99.90;;;;;;2090348;28;20572;-72
2021/06/12 00:27:46;;;;;;;13.37;12.07;;;13.30;99.90;;;;;;2091176;28;20177;-72
2021/06/12 00:28:47;;;;;;;15.50;13.90;;;13.20;99.90;;;;;;2082677;28;20177;-72
2021/06/12 00:29:49;;;;;;;13.50;12.20;;;13.20;99.90;;;;;;2082727;28;20232;-71
2021/06/12 00:30:50;;;;;;;13.25;11.98;;;13.20;99.90;;;;;;2090945;28;20180;-72
2021/06/12 00:31:50;;;;;;;13.90;12.60;;;13.20;99.90;;;;;;2089862;28;20211;-72
2021/06/12 00:32:52;;;;;;;15.03;13.53;;;13.20;99.90;;;;;;2089783;28;20200;-72
2021/06/12 00:33:54;;;;;;;14.18;12.80;;;13.20;99.90;;;;;;2091427;28;20176;-71
2021/06/12 00:34:54;;;;;;;12.98;11.70;;;13.10;99.90;;;;;;2091168;28;20551;-72
2021/06/12 00:35:55;;;;;;;13.43;12.13;;;13.20;99.90;;;;;;2090679;28;20172;-71
2021/06/12 00:36:56;;;;;;;14.73;13.33;;;13.10;99.90;;;;;;2090346;28;20254;-72
2021/06/12 00:37:57;;;;;;;14.27;12.70;;;13.10;99.90;;;;;;2082381;28;20188;-71
2021/06/12 00:38:57;;;;;;;13.17;11.97;;;13.10;99.90;;;;;;2081666;28;20920;-71
2021/06/12 00:39:58;;;;;;;14.87;12.73;;;13.10;99.90;;;;;;2082282;28;20193;-71
2021/06/12 00:40:59;;;;;;;12.70;11.20;;;13.00;99.90;;;;;;2082535;28;20185;-70
2021/06/12 00:41:59;;;;;;;14.30;12.90;;;13.00;99.90;;;;;;2082626;28;20312;-72
2021/06/12 00:43:00;;;;;;;14.80;13.33;;;13.00;99.90;;;;;;2091441;28;20204;-71
2021/06/12 00:44:01;;;;;;;14.83;13.10;;;13.00;99.90;;;;;;2091538;28;20180;-72
2021/06/12 00:45:02;;;;;;;15.03;13.63;;;13.00;99.90;;;;;;2082864;28;20259;-71
2021/06/12 00:46:03;;;;;;;15.82;14.10;;;13.00;99.90;;;;;;2082107;28;20271;-72
2021/06/12 00:47:04;;;;;;;15.57;13.97;;;13.00;99.90;;;;;;2091470;28;20222;-72
2021/06/12 00:48:05;;;;;;;14.60;13.17;;;13.00;99.90;;;;;;2091923;28;20613;-71
2021/06/12 00:49:07;;;;;;;13.65;12.27;;;13.00;99.90;;;;;;2090317;28;20583;-72
2021/06/12 00:50:09;;;;;;;14.05;12.65;;;13.00;99.90;;;;;;2090899;28;20183;-72
2021/06/12 00:51:11;;;;;;;17.02;13.43;;;13.10;99.90;;;;;;2082177;28;20441;-71
2021/06/12 00:52:11;;;;;;;14.35;12.98;;;13.00;99.90;;;;;;2082693;28;20180;-72
2021/06/12 00:53:18;;;;;;;13.80;12.50;;;13.10;99.90;;;;;;2090655;28;20172;-71
2021/06/12 00:54:19;;;;;;;14.38;13.07;;;13.00;99.90;;;;;;2090603;28;20160;-72
2021/06/12 00:55:20;;;;;;;14.40;12.90;;;13.00;99.90;;;;;;2090490;28;20253;-71
2021/06/12 00:56:21;;;;;;;14.45;13.02;;;13.00;99.90;;;;;;2090055;28;20185;-72
2021/06/12 00:57:22;;;;;;;13.20;12.00;;;12.90;99.90;;;;;;2091410;28;20235;-71
2021/06/12 00:58:23;;;;;;;14.17;12.83;;;13.00;99.90;;;;;;2091636;28;20172;-72
2021/06/12 00:59:24;;;;;;;13.50;12.20;;;12.90;99.90;;;;;;2090772;28;20426;-72
2021/06/12 01:00:25;;;;;;;14.65;11.60;;;13.00;99.90;;;;;;2090547;28;20180;-72
2021/06/12 01:01:26;;;;;;;14.98;13.50;;;13.00;99.90;;;;;;2075017;28;20178;-71
2021/06/12 01:02:27;;;;;;;14.37;13.07;;;13.00;99.90;;;;;;2082656;28;20180;-71
2021/06/12 01:03:29;;;;;;;15.68;14.18;;;12.90;99.90;;;;;;2082688;28;20660;-71
2021/06/12 01:04:30;;;;;;;14.38;13.00;;;12.90;99.90;;;;;;2082413;28;20181;-71
2021/06/12 01:05:30;;;;;;;14.30;12.90;;;12.90;99.90;;;;;;2090975;28;20184;-71
2021/06/12 01:06:31;;;;;;;13.63;12.33;;;13.00;99.90;;;;;;2090603;28;20213;-71
2021/06/12 01:07:32;;;;;;;13.07;11.77;;;12.90;99.90;;;;;;2090652;28;20190;-71
2021/06/12 01:08:33;;;;;;;12.77;11.57;;;12.90;99.90;;;;;;2081824;28;20191;-71
2021/06/12 01:09:34;;;;;;;15.27;13.77;;;13.00;99.90;;;;;;2090481;28;20184;-71
2021/06/12 01:10:35;;;;;;;14.10;12.77;;;12.90;99.90;;;;;;2090742;28;20635;-71
2021/06/12 01:11:48;;;;;;;13.73;12.37;;;12.90;99.90;;;;;;2090809;28;20222;-71
2021/06/12 01:13:28;;;;;;;13.95;12.65;;;12.80;99.90;;;;;;2081777;28;20742;-70
2021/06/12 01:14:35;;;;;;;13.57;12.38;;;12.80;99.90;;;;;;2087860;28;20168;-71
2021/06/12 01:15:51;;;;;;;13.77;12.48;;;12.70;99.90;;;;;;2082103;28;20161;-70
2021/06/12 01:17:22;;;;;;;14.00;12.70;;;12.70;99.90;;;;;;2076878;28;20649;-70
2021/06/12 01:18:33;;;;;;;13.82;12.38;;;12.70;99.90;;;;;;2078082;28;20181;-70
2021/06/12 01:20:01;;;;;;;13.75;12.38;;;12.70;99.90;;;;;;2084692;28;20605;-70
2021/06/12 01:21:28;;;;;;;13.60;12.30;;;12.70;99.90;;;;;;2092715;28;20176;-70
2021/06/12 01:23:17;;;;;;;12.32;11.13;;;12.70;99.90;;;;;;2092585;28;20176;-70
2021/06/12 01:24:37;;;;;;;13.25;11.95;;;12.70;99.90;;;;;;2091571;28;20163;-70
2021/06/12 01:25:54;;;;;;;12.90;11.57;;;12.70;99.90;;;;;;2092535;28;20171;-70
2021/06/12 01:27:13;;;;;;;14.73;12.75;;;12.60;99.90;;;;;;2091758;28;20160;-70
2021/06/12 01:28:41;;;;;;;14.40;12.35;;;12.60;99.90;;;;;;2084295;28;20173;-70
2021/06/12 01:30:09;;;;;;;13.65;12.15;;;12.60;99.90;;;;;;2083627;28;20166;-70
2021/06/12 01:31:11;;;;;;;14.40;12.98;;;12.60;99.90;;;;;;2087228;28;20175;-70
2021/06/12 01:32:15;;;;;;;13.75;12.45;;;12.60;99.90;;;;;;2083432;28;20173;-72
2021/06/12 01:33:16;;;;;;;15.65;14.27;;;12.60;99.90;;;;;;2084063;28;20176;-71
2021/06/12 01:34:20;;;;;;;14.40;13.10;;;12.60;99.90;;;;;;2083490;28;20174;-71
2021/06/12 01:35:40;;;;;;;14.40;12.90;;;12.60;99.90;;;;;;2084321;28;20173;-71
2021/06/12 01:36:43;;;;;;;13.32;12.00;;;12.60;99.90;;;;;;2091900;28;20173;-71
2021/06/12 01:37:46;;;;;;;15.57;13.95;;;12.60;99.90;;;;;;2083307;28;20718;-71
2021/06/12 01:38:51;;;;;;;15.80;14.23;;;12.60;99.90;;;;;;2074870;28;20286;-71
2021/06/12 01:39:53;;;;;;;14.65;13.25;;;12.60;99.90;;;;;;2075817;28;20190;-71
2021/06/12 01:40:57;;;;;;;15.48;13.88;;;12.60;99.90;;;;;;2075815;28;20189;-71
2021/06/12 01:42:01;;;;;;;15.27;13.88;;;12.60;99.90;;;;;;2075847;28;20174;-70
2021/06/12 01:43:07;;;;;;;15.30;13.77;;;12.60;99.90;;;;;;2083100;28;20219;-71
2021/06/12 01:44:11;;;;;;;14.68;13.20;;;12.60;99.90;;;;;;2084626;28;20161;-71
2021/06/12 01:45:12;;;;;;;14.27;12.85;;;12.60;99.90;;;;;;2084293;28;20738;-71
2021/06/12 01:46:13;;;;;;;13.55;12.25;;;12.60;99.90;;;;;;2083574;28;20260;-71
2021/06/12 01:47:15;;;;;;;14.85;13.43;;;12.60;99.90;;;;;;2083733;28;20230;-71
2021/06/12 01:48:16;;;;;;;13.35;12.15;;;12.60;99.90;;;;;;2083490;28;20201;-71
2021/06/12 01:49:18;;;;;;;14.02;12.73;;;12.60;99.90;;;;;;2083355;28;20214;-71
2021/06/12 01:50:22;;;;;;;15.25;13.85;;;12.60;99.90;;;;;;2076372;28;20185;-71
2021/06/12 01:51:23;;;;;;;13.65;12.38;;;12.60;99.90;;;;;;2076013;28;20649;-71
2021/06/12 01:52:26;;;;;;;14.73;13.10;;;12.60;99.90;;;;;;2075527;28;20236;-71
2021/06/12 01:53:31;;;;;;;13.48;12.07;;;12.60;99.90;;;;;;2083067;28;20709;-70
2021/06/12 01:54:33;;;;;;;12.90;11.70;;;12.60;99.90;;;;;;2084107;28;20241;-71
2021/06/12 01:55:36;;;;;;;14.25;12.85;;;12.60;99.90;;;;;;2091891;28;20606;-71
2021/06/12 01:56:39;;;;;;;13.27;11.90;;;12.60;99.90;;;;;;2083282;28;20223;-70
2021/06/12 01:57:43;;;;;;;12.90;11.70;;;12.60;99.90;;;;;;2074979;28;20210;-70
2021/06/12 01:58:44;;;;;;;16.95;13.40;;;12.70;99.90;;;;;;2084282;28;20248;-70
2021/06/12 01:59:49;;;;;;;13.30;12.10;;;12.60;99.90;;;;;;2092161;28;20168;-70
2021/06/12 02:00:52;;;;;;;13.05;11.75;;;12.60;99.90;;;;;;2092416;28;20177;-70
2021/06/12 02:01:55;;;;;;;13.57;12.13;;;12.60;99.90;;;;;;2084153;28;20268;-70
2021/06/12 02:02:59;;;;;;;12.90;11.70;;;12.50;99.90;;;;;;2084013;28;20201;-70
2021/06/12 02:04:02;;;;;;;12.57;11.38;;;12.50;99.90;;;;;;2083137;28;20177;-71
2021/06/12 02:05:05;;;;;;;13.65;12.35;;;12.50;99.90;;;;;;2075267;28;20182;-71
2021/06/12 02:06:11;;;;;;;14.40;12.68;;;12.50;99.90;;;;;;2067391;28;20182;-71
2021/06/12 02:07:12;;;;;;;13.25;11.93;;;12.50;99.90;;;;;;2077037;28;20169;-71
2021/06/12 02:08:18;;;;;;;13.80;12.55;;;12.50;99.90;;;;;;2091914;28;20204;-71
2021/06/12 02:09:19;;;;;;;15.32;13.75;;;12.50;99.90;;;;;;2083871;28;20484;-71
2021/06/12 02:10:26;;;;;;;14.40;13.05;;;12.50;99.90;;;;;;2083187;28;20185;-71
2021/06/12 02:11:27;;;;;;;13.32;12.02;;;12.50;99.90;;;;;;2083485;28;20644;-71
2021/06/12 02:12:29;;;;;;;15.23;13.23;;;12.50;99.90;;;;;;2083101;28;20177;-71
2021/06/12 02:13:31;;;;;;;13.90;12.50;;;12.50;99.90;;;;;;2083878;28;20195;-71
2021/06/12 02:14:33;;;;;;;16.35;14.80;;;12.50;99.90;;;;;;2084025;28;20181;-71
2021/06/12 02:15:35;;;;;;;13.85;12.55;;;12.50;99.90;;;;;;2092191;28;20176;-70
2021/06/12 02:16:38;;;;;;;13.52;12.13;;;12.50;99.90;;;;;;2083809;28;20191;-71
2021/06/12 02:17:39;;;;;;;13.40;12.07;;;12.50;99.90;;;;;;2075190;28;20284;-71
2021/06/12 02:18:44;;;;;;;12.90;11.60;;;12.50;99.90;;;;;;2083181;28;20181;-71
2021/06/12 02:19:45;;;;;;;13.32;12.02;;;12.50;99.90;;;;;;2082974;28;20686;-70
2021/06/12 02:20:50;;;;;;;13.48;12.27;;;12.40;99.90;;;;;;2074766;28;20814;-71
2021/06/12 02:21:51;;;;;;;13.25;11.88;;;12.40;99.90;;;;;;2075665;28;20174;-70
2021/06/12 02:22:55;;;;;;;13.68;12.38;;;12.40;99.90;;;;;;2082896;28;20213;-70
2021/06/12 02:23:56;;;;;;;14.40;13.10;;;12.30;99.90;;;;;;2083747;28;20216;-70
2021/06/12 02:24:57;;;;;;;14.05;12.65;;;12.40;99.90;;;;;;2082993;28;20248;-70
2021/06/12 02:25:58;;;;;;;14.17;12.23;;;12.30;99.90;;;;;;2091960;28;20173;-70
2021/06/12 02:26:59;;;;;;;13.77;12.48;;;12.30;99.90;;;;;;2091310;28;20176;-70
2021/06/12 02:28:05;;;;;;;13.48;12.27;;;12.30;99.90;;;;;;2083164;28;20173;-70
2021/06/12 02:29:08;;;;;;;14.02;12.75;;;12.30;99.90;;;;;;2082722;28;20173;-70
2021/06/12 02:30:11;;;;;;;15.13;13.63;;;12.30;99.90;;;;;;2083549;28;20596;-70
2021/06/12 02:31:26;;;;;;;17.15;15.45;;;12.40;99.90;;;;;;2090178;28;20184;-70
2021/06/12 02:32:28;;;;;;;14.70;13.40;;;12.30;99.90;;;;;;2083337;28;20169;-70
2021/06/12 02:33:30;;;;;;;14.70;13.35;;;12.30;99.90;;;;;;2082669;28;20894;-70
2021/06/12 02:34:33;;;;;;;15.77;12.80;;;12.40;99.90;;;;;;2083045;28;20227;-72
2021/06/12 02:35:34;;;;;;;14.75;13.30;;;12.40;99.90;;;;;;2083320;28;20177;-70
2021/06/12 02:36:35;;;;;;;13.87;12.50;;;12.40;99.90;;;;;;2092683;28;20194;-70
2021/06/12 02:37:38;;;;;;;13.93;12.55;;;12.40;99.90;;;;;;2091995;28;20215;-70
2021/06/12 02:38:39;;;;;;;15.07;13.60;;;12.50;99.90;;;;;;2091185;28;20187;-70
2021/06/12 02:39:40;;;;;;;15.07;13.67;;;12.50;99.90;;;;;;2083586;28;20200;-69
2021/06/12 02:40:41;;;;;;;15.20;13.87;;;12.50;99.90;;;;;;2079603;28;20272;-70
2021/06/12 02:41:42;;;;;;;14.23;12.83;;;12.50;99.90;;;;;;2087723;28;20219;-71
2021/06/12 02:42:43;;;;;;;14.88;13.40;;;12.50;99.90;;;;;;2086894;28;20211;-70
2021/06/12 02:43:44;;;;;;;15.87;14.27;;;12.50;99.90;;;;;;2090427;28;20185;-70
2021/06/12 02:44:45;;;;;;;13.53;12.23;;;12.50;99.90;;;;;;2091334;28;20435;-70
2021/06/12 02:45:45;;;;;;;14.73;13.27;;;12.50;99.90;;;;;;2092186;28;20176;-70
2021/06/12 02:46:47;;;;;;;14.33;13.03;;;12.50;99.90;;;;;;2091723;28;20195;-70
2021/06/12 02:47:54;;;;;;;13.73;12.43;;;12.40;99.90;;;;;;2083406;28;20716;-72
2021/06/12 02:49:04;;;;;;;14.07;12.75;;;12.40;99.90;;;;;;2068138;28;20189;-70
2021/06/12 02:50:07;;;;;;;14.43;13.13;;;12.30;99.90;;;;;;2084135;28;20198;-70
2021/06/12 02:51:10;;;;;;;14.23;12.80;;;12.30;99.90;;;;;;2090559;28;20230;-70
2021/06/12 02:52:18;;;;;;;16.48;13.23;;;12.30;99.90;;;;;;2082621;28;20180;-70
2021/06/12 02:53:24;;;;;;;13.55;12.15;;;12.30;99.90;;;;;;2083890;28;20169;-71
2021/06/12 02:54:26;;;;;;;16.15;13.63;;;12.30;99.90;;;;;;2082906;28;20177;-70
2021/06/12 02:55:32;;;;;;;13.82;12.38;;;12.30;99.90;;;;;;2074677;28;20181;-70
2021/06/12 02:56:33;;;;;;;15.85;14.25;;;12.30;99.90;;;;;;2083472;28;20753;-70
2021/06/12 02:57:37;;;;;;;15.38;13.82;;;12.30;99.90;;;;;;2082285;28;20672;-70
2021/06/12 02:58:40;;;;;;;14.35;12.93;;;12.30;99.90;;;;;;2074668;28;20182;-70
2021/06/12 02:59:44;;;;;;;16.30;14.70;;;12.20;99.90;;;;;;2083175;28;20181;-70
2021/06/12 03:00:47;;;;;;;15.23;13.82;;;12.20;99.90;;;;;;2082661;28;20177;-71
2021/06/12 03:01:49;;;;;;;15.00;13.48;;;12.20;99.90;;;;;;2074626;28;20193;-70
2021/06/12 03:02:51;;;;;;;14.85;13.35;;;12.20;99.90;;;;;;2074517;28;20692;-70
2021/06/12 03:03:53;;;;;;;15.63;13.90;;;12.20;99.90;;;;;;2083180;28;20184;-70
2021/06/12 03:04:56;;;;;;;15.02;13.40;;;12.20;99.90;;;;;;2083052;28;20189;-70
2021/06/12 03:05:59;;;;;;;16.20;13.35;;;12.20;99.90;;;;;;2083315;28;20245;-70
2021/06/12 03:07:00;;;;;;;14.70;13.27;;;12.20;99.90;;;;;;2075045;28;20216;-70
2021/06/12 03:08:02;;;;;;;13.80;12.50;;;12.20;99.90;;;;;;2074423;28;20636;-71
2021/06/12 03:09:04;;;;;;;15.95;13.10;;;12.20;99.90;;;;;;2091253;28;20176;-70
2021/06/12 03:10:06;;;;;;;13.60;12.30;;;12.20;99.90;;;;;;2090819;28;20179;-70
2021/06/12 03:11:10;;;;;;;14.48;13.07;;;12.20;99.90;;;;;;2091438;28;20654;-70
2021/06/12 03:12:11;;;;;;;16.20;13.55;;;12.30;99.90;;;;;;2090603;28;20172;-73
2021/06/12 03:13:17;;;;;;;14.45;13.00;;;12.20;99.90;;;;;;2083299;28;20197;-70
2021/06/12 03:14:19;;;;;;;15.07;13.60;;;12.20;99.90;;;;;;2083110;28;20338;-70
2021/06/12 03:15:20;;;;;;;15.75;13.88;;;12.20;99.90;;;;;;2075290;28;20229;-70
2021/06/12 03:16:23;;;;;;;14.48;12.98;;;12.20;99.90;;;;;;2075287;28;20264;-70
2021/06/12 03:17:25;;;;;;;13.90;12.57;;;12.20;99.90;;;;;;2082605;28;20212;-70
2021/06/12 03:18:27;;;;;;;13.35;12.13;;;12.20;99.90;;;;;;2082813;28;20239;-70
2021/06/12 03:19:29;;;;;;;12.68;11.48;;;12.20;99.90;;;;;;2082978;28;20177;-70
2021/06/12 03:20:32;;;;;;;13.18;11.88;;;12.20;99.90;;;;;;2074998;28;20187;-70
2021/06/12 03:21:33;;;;;;;14.05;12.75;;;12.20;99.90;;;;;;2067669;28;20668;-70
2021/06/12 03:22:37;;;;;;;14.00;12.70;;;12.20;99.90;;;;;;2067107;28;20210;-70
2021/06/12 03:23:39;;;;;;;13.98;12.68;;;12.20;99.90;;;;;;2076715;28;20186;-70
2021/06/12 03:24:41;;;;;;;14.95;13.55;;;12.20;99.90;;;;;;2092002;28;20185;-70
2021/06/12 03:25:42;;;;;;;15.55;14.05;;;12.20;99.90;;;;;;2092119;28;20267;-70
2021/06/12 03:26:44;;;;;;;13.68;12.48;;;12.20;99.90;;;;;;2092847;28;20828;-70
2021/06/12 03:27:45;;;;;;;14.60;13.20;;;12.20;99.90;;;;;;2092033;28;20192;-71
2021/06/12 03:28:47;;;;;;;14.93;13.38;;;12.20;99.90;;;;;;2091885;28;20184;-70
2021/06/12 03:29:48;;;;;;;13.77;12.48;;;12.20;99.90;;;;;;2075729;28;20236;-70
2021/06/12 03:30:49;;;;;;;16.05;14.52;;;12.20;99.90;;;;;;2067621;28;20261;-70
2021/06/12 03:31:50;;;;;;;13.68;12.30;;;12.20;99.90;;;;;;2075617;28;20204;-70
2021/06/12 03:32:52;;;;;;;14.95;13.45;;;12.20;99.90;;;;;;2083587;28;20201;-70
2021/06/12 03:33:53;;;;;;;15.65;14.07;;;12.20;99.90;;;;;;2084169;28;20184;-70
2021/06/12 03:34:54;;;;;;;17.05;15.43;;;12.20;99.90;;;;;;2083903;28;20181;-70
2021/06/12 03:35:56;;;;;;;15.73;14.27;;;12.20;99.90;;;;;;2083664;28;20180;-70
2021/06/12 03:36:58;;;;;;;15.18;13.77;;;12.20;99.90;;;;;;2083820;28;20212;-71
2021/06/12 03:37:59;;;;;;;14.20;12.70;;;12.20;99.90;;;;;;2083797;28;20204;-70
2021/06/12 03:39:00;;;;;;;16.10;14.18;;;12.20;99.90;;;;;;2083863;28;20180;-70
2021/06/12 03:40:03;;;;;;;16.37;13.87;;;12.20;99.90;;;;;;2091228;28;20176;-70
2021/06/12 03:41:06;;;;;;;13.43;12.05;;;12.20;99.90;;;;;;2083828;28;20323;-70
2021/06/12 03:42:07;;;;;;;13.93;12.63;;;12.30;99.90;;;;;;2083466;28;20169;-71
2021/06/12 03:43:09;;;;;;;14.20;12.80;;;12.30;99.90;;;;;;2074365;28;20302;-71
2021/06/12 03:44:11;;;;;;;15.50;14.07;;;12.30;99.90;;;;;;2075569;28;20240;-71
2021/06/12 03:45:14;;;;;;;15.02;13.43;;;12.30;99.90;;;;;;2075764;28;20184;-70
2021/06/12 03:46:17;;;;;;;16.38;14.70;;;12.30;99.90;;;;;;2083502;28;20232;-70
2021/06/12 03:47:18;;;;;;;15.80;14.32;;;12.30;99.90;;;;;;2083606;28;20185;-70
2021/06/12 03:48:21;;;;;;;14.47;13.07;;;12.30;99.90;;;;;;2083692;28;20846;-70
2021/06/12 03:49:21;;;;;;;13.63;12.40;;;12.40;99.90;;;;;;2075751;28;20189;-71
2021/06/12 03:50:25;;;;;;;13.43;12.23;;;12.40;99.90;;;;;;2083786;28;20223;-69
2021/06/12 03:51:27;;;;;;;14.55;13.15;;;12.50;99.90;;;;;;2083288;28;20272;-71
2021/06/12 03:52:29;;;;;;;14.15;12.80;;;12.50;99.90;;;;;;2067613;28;20190;-70
2021/06/12 03:53:30;;;;;;;12.57;11.05;;;12.50;99.90;;;;;;2075543;28;20198;-71
2021/06/12 03:54:32;;;;;;;13.18;11.98;;;12.50;99.90;;;;;;2083588;28;20180;-70
2021/06/12 03:55:34;;;;;;;13.82;12.50;;;12.50;99.90;;;;;;2067121;28;20554;-69
2021/06/12 03:56:38;;;;;;;14.50;13.10;;;12.60;99.90;;;;;;2067626;28;20189;-70
2021/06/12 03:57:39;;;;;;;13.85;12.65;;;12.60;99.90;;;;;;2075525;28;20237;-70
2021/06/12 03:58:43;;;;;;;13.50;12.20;;;12.60;99.90;;;;;;2075476;28;20174;-71
2021/06/12 03:59:44;;;;;;;13.32;12.02;;;12.70;99.90;;;;;;2075307;28;20177;-70
2021/06/12 04:00:45;;;;;;;12.95;11.85;;;12.70;99.90;;;;;;2075490;28;20177;-70
2021/06/12 04:01:48;;;;;;;13.68;11.70;;;12.70;99.90;;;;;;2083553;28;20222;-69
2021/06/12 04:02:50;;;;;;;12.65;11.55;;;12.70;99.90;;;;;;2083861;28;20232;-70
2021/06/12 04:03:50;;;;;;;11.93;10.77;;;12.80;99.90;;;;;;2084088;28;20323;-70
2021/06/12 04:04:51;;;;;;;12.57;10.77;;;12.80;99.90;;;;;;2083564;28;20227;-70
2021/06/12 04:05:52;;;;;;;11.83;10.73;;;12.80;99.90;;;;;;2083599;28;20187;-70
2021/06/12 04:06:53;;;;;;;11.87;10.73;;;12.80;99.90;;;;;;2067257;28;20182;-69
2021/06/12 04:07:54;;;;;;;12.32;11.13;;;12.90;99.90;;;;;;2076068;28;20180;-70
2021/06/12 04:08:55;;;;;;;12.20;11.07;;;12.90;99.90;;;;;;2075594;28;20184;-71
2021/06/12 04:09:55;;;;;;;12.63;11.00;;;12.80;99.90;;;;;;2075821;28;20244;-69
2021/06/12 04:10:56;;;;;;;12.63;11.53;;;12.80;99.90;;;;;;2084470;28;20177;-70
2021/06/12 04:11:57;;;;;;;12.33;11.23;;;12.90;99.90;;;;;;2083741;28;20180;-70
2021/06/12 04:12:57;;;;;;;12.03;11.03;;;12.90;99.90;;;;;;2083686;28;20252;-70
2021/06/12 04:14:00;;;;;;;12.10;10.90;;;12.90;99.90;;;;;;2067586;28;20285;-70
2021/06/12 04:15:01;;;;;;;10.50;9.48;;;13.00;99.90;;;;;;2076050;28;20578;-70
2021/06/12 04:16:01;;;;;;;11.30;10.00;;;13.00;99.90;;;;;;2075710;28;20177;-70
2021/06/12 04:17:04;;;;;;;11.80;10.63;;;13.10;99.90;;;;;;2075624;28;20228;-70
2021/06/12 04:18:08;;;;;;;11.68;10.52;;;13.10;99.90;;;;;;2083842;28;20618;-70
2021/06/12 04:19:08;;;;;;;11.60;10.50;;;13.20;99.90;;;;;;2083683;28;20208;-70
2021/06/12 04:20:11;;;;;;;11.70;10.43;;;13.20;99.90;;;;;;2084336;28;20188;-70
2021/06/12 04:21:12;;;;;;;11.27;9.70;;;13.20;99.90;;;;;;2075616;28;20594;-70
2021/06/12 04:22:12;;;;;;;11.50;10.37;;;13.20;99.90;;;;;;2075449;28;20178;-70
2021/06/12 04:23:13;;;;;;;10.70;9.73;;;13.30;99.90;;;;;;2083388;28;20204;-70
2021/06/12 04:24:14;;;;;;;12.20;10.40;;;13.30;99.90;;;;;;2075457;28;20641;-70
2021/06/12 04:25:15;;;;;;;11.50;10.30;;;13.30;99.90;;;;;;2075290;28;20182;-70
2021/06/12 04:26:15;;;;;;;10.70;9.73;;;13.30;99.90;;;;;;2083362;28;20184;-70
2021/06/12 04:27:16;;;;;;;11.00;10.00;;;13.30;99.90;;;;;;2083510;28;20200;-70
2021/06/12 04:28:17;;;;;;;12.07;10.63;;;13.30;99.90;;;;;;2075112;28;20648;-70
2021/06/12 04:29:17;;;;;;;10.67;9.77;;;13.30;99.90;;;;;;2075115;28;20185;-70
2021/06/12 04:30:20;;;;;;;10.53;9.53;;;13.40;99.90;;;;;;2083627;28;20223;-70
2021/06/12 04:31:22;;;;;;;10.85;9.82;;;13.40;99.90;;;;;;2067242;28;20182;-70
2021/06/12 04:32:22;;;;;;;11.10;10.05;;;13.40;99.90;;;;;;2075009;28;20185;-70
2021/06/12 04:33:23;;;;;;;11.80;10.60;;;13.40;99.90;;;;;;2075304;28;20174;-70
2021/06/12 04:34:24;;;;;;;11.03;9.90;;;13.40;99.90;;;;;;2083545;28;20271;-69
2021/06/12 04:35:25;;;;;;;11.13;10.03;;;13.40;99.90;;;;;;2075302;28;20178;-70
2021/06/12 04:36:26;;;;;;;10.70;9.80;;;13.40;99.90;;;;;;2075252;28;20182;-70
2021/06/12 04:37:26;;;;;;;11.10;10.00;;;13.40;99.90;;;;;;2083766;28;20348;-70
2021/06/12 04:38:27;;;;;;;11.90;10.70;;;13.40;99.90;;;;;;2084148;28;20208;-70
2021/06/12 04:39:29;;;;;;;10.73;9.83;;;13.50;99.90;;;;;;2083856;28;20177;-70
2021/06/12 04:40:33;;;;;;;11.18;10.18;;;13.40;99.90;;;;;;2084707;28;20177;-70
2021/06/12 04:41:34;;;;;;;11.10;10.15;;;13.40;99.90;;;;;;2087621;28;20187;-71
2021/06/12 04:42:36;;;;;;;11.20;10.20;;;13.40;99.90;;;;;;2081730;28;20677;-70
2021/06/12 04:43:36;;;;;;;11.88;10.73;;;13.40;99.90;;;;;;2082545;28;20180;-70
2021/06/12 04:44:37;;;;;;;10.60;9.60;;;13.40;99.90;;;;;;2073913;28;20197;-70
2021/06/12 04:45:39;;;;;;;11.10;10.13;;;13.40;99.90;;;;;;2074620;28;20182;-70
2021/06/12 04:46:40;;;;;;;10.73;9.73;;;13.50;99.90;;;;;;2082786;28;20201;-70
2021/06/12 04:47:40;;;;;;;9.95;8.95;;;13.50;99.90;;;;;;2082736;28;20273;-69
2021/06/12 04:48:41;;;;;;;10.93;9.80;;;13.50;99.90;;;;;;2081956;28;20730;-71
2021/06/12 04:49:42;;;;;;;10.47;9.57;;;13.50;99.90;;;;;;2073494;28;20189;-70
2021/06/12 04:50:43;;;;;;;10.33;9.43;;;13.60;99.90;;;;;;2073878;28;20228;-70
2021/06/12 04:51:43;;;;;;;11.53;10.53;;;13.60;99.90;;;;;;2073850;28;20710;-70
2021/06/12 04:52:44;;;;;;;10.93;9.93;;;13.60;99.90;;;;;;2073756;28;20237;-70
2021/06/12 04:53:45;;;;;;;10.00;9.15;;;13.60;99.90;;;;;;2083650;28;20181;-70
2021/06/12 04:54:46;;;;;;;9.87;9.03;;;13.60;99.90;;;;;;2083505;28;20184;-70
2021/06/12 04:55:47;;;;;;;9.53;8.73;;;13.60;99.90;;;;;;2083672;28;20173;-70
2021/06/12 04:56:47;;;;;;;10.40;9.40;;;13.70;99.90;;;;;;2074995;28;20186;-70
2021/06/12 04:57:48;;;;;;;10.30;9.40;;;13.70;99.90;;;;;;2066943;28;20282;-70
2021/06/12 04:58:49;;;;;;;10.67;9.57;;;13.70;99.90;;;;;;2074953;28;20185;-70
2021/06/12 04:59:50;;;;;;;10.40;8.70;;;13.80;99.90;;;;;;2083838;28;20177;-70
2021/06/12 05:00:51;;;;;;;10.37;9.47;;;13.80;99.90;;;;;;2083776;28;20284;-70
2021/06/12 05:01:52;;;;;;;10.52;9.63;;;13.80;99.90;;;;;;2083154;28;20192;-70
2021/06/12 05:02:53;;;;;;;10.27;9.27;;;13.80;99.90;;;;;;2082906;28;20228;-70
2021/06/12 05:03:54;;;;;;;9.97;9.07;;;13.90;99.90;;;;;;2083154;28;20193;-70
2021/06/12 05:04:54;;;;;;;9.67;8.67;;;14.00;99.90;;;;;;2083292;28;20192;-73
2021/06/12 05:05:55;;;;;;;9.93;8.47;;;14.00;99.90;;;;;;2075257;28;20233;-71
2021/06/12 05:06:56;;;;;;;9.97;9.07;;;14.00;99.90;;;;;;2075039;28;20174;-70
2021/06/12 05:07:56;;;;;;;9.97;9.07;;;14.00;99.90;;;;;;2074971;28;20201;-70
2021/06/12 05:08:57;;;;;;;8.83;8.10;;;14.10;99.90;;;;;;2074908;28;20173;-70
2021/06/12 05:09:58;;;;;;;9.03;8.33;;;14.10;99.90;;;;;;2075067;28;20265;-70
2021/06/12 05:10:58;;;;;;;9.33;8.53;;;14.20;99.90;;;;;;2074985;28;20253;-70
2021/06/12 05:11:59;;;;;;;9.00;8.20;;;14.20;99.90;;;;;;2083827;28;20659;-71
2021/06/12 05:13:00;;;;;;;8.30;7.50;;;14.30;99.90;;;;;;2082963;28;20192;-70
2021/06/12 05:14:01;;;;;;;8.03;7.23;;;14.40;99.90;;;;;;2083234;28;20184;-70
2021/06/12 05:15:02;;;;;;;8.77;7.90;;;14.40;99.90;;;;;;2083773;28;20189;-71
2021/06/12 05:16:04;;;;;;;8.70;7.80;;;14.50;99.90;;;;;;2082804;28;20181;-70
2021/06/12 05:17:08;;;;;;;10.23;8.57;;;14.60;99.90;;;;;;2082672;28;20264;-70
2021/06/12 05:18:11;;;;;;;8.48;7.78;;;14.50;99.90;;;;;;2082564;28;20192;-69
2021/06/12 05:19:11;;;;;;;8.43;7.72;;;14.50;99.90;;;;;;2082395;28;20663;-70